createdAt,value
2018-02-19T00:00:24.971Z,1026.48
2018-02-19T00:01:24.970Z,1026.49
2018-02-19T00:02:24.981Z,1026.47
2018-02-19T00:03:24.977Z,1026.46
2018-02-19T00:04:24.972Z,1026.48
2018-02-19T00:05:24.965Z,1026.48
2018-02-19T00:06:24.965Z,1026.45
2018-02-19T00:07:24.981Z,1026.48
2018-02-19T00:08:24.979Z,1026.45
2018-02-19T00:09:24.969Z,1026.48
2018-02-19T00:10:24.974Z,1026.43
2018-02-19T00:11:24.977Z,1026.42
2018-02-19T00:12:24.955Z,1026.41
2018-02-19T00:13:24.965Z,1026.43
2018-02-19T00:14:24.997Z,1026.41
2018-02-19T00:15:24.987Z,1026.4
2018-02-19T00:16:24.974Z,1026.38
2018-02-19T00:17:25.003Z,1026.37
2018-02-19T00:18:24.966Z,1026.36
2018-02-19T00:19:24.960Z,1026.34
2018-02-19T00:20:24.964Z,1026.32
2018-02-19T00:21:25.065Z,1026.31
2018-02-19T00:22:25.081Z,1026.25
2018-02-19T00:23:24.953Z,1026.24
2018-02-19T00:24:24.957Z,1026.23
2018-02-19T00:25:25.051Z,1026.26
2018-02-19T00:26:24.970Z,1026.24
2018-02-19T00:27:24.844Z,1026.28
2018-02-19T00:28:24.966Z,1026.25
2018-02-19T00:29:24.969Z,1026.28
2018-02-19T00:30:24.953Z,1026.28
2018-02-19T00:31:24.967Z,1026.3
2018-02-19T00:32:24.957Z,1026.28
2018-02-19T00:33:24.955Z,1026.29
2018-02-19T00:34:24.969Z,1026.26
2018-02-19T00:35:24.962Z,1026.27
2018-02-19T00:36:24.959Z,1026.23
2018-02-19T00:37:24.967Z,1026.22
2018-02-19T00:38:24.970Z,1026.17
2018-02-19T00:39:24.988Z,1026.14
2018-02-19T00:40:24.945Z,1026.18
2018-02-19T00:41:24.979Z,1026.17
2018-02-19T00:42:24.951Z,1026.14
2018-02-19T00:43:24.955Z,1026.12
2018-02-19T00:44:25.318Z,1026.11
2018-02-19T00:45:24.966Z,1026.12
2018-02-19T00:46:24.954Z,1026.09
2018-02-19T00:47:24.961Z,1026.1
2018-02-19T00:48:24.952Z,1026.07
2018-02-19T00:49:24.980Z,1026.04
2018-02-19T00:50:24.962Z,1026.03
2018-02-19T00:51:24.992Z,1026.02
2018-02-19T00:52:24.953Z,1026.01
2018-02-19T00:53:24.955Z,1026.05
2018-02-19T00:54:24.980Z,1026.03
2018-02-19T00:55:24.952Z,1026.05
2018-02-19T00:56:24.930Z,1026.05
2018-02-19T00:57:24.950Z,1026.07
2018-02-19T00:58:24.935Z,1026.04
2018-02-19T00:59:24.957Z,1026.05
2018-02-19T01:00:24.953Z,1026.04
2018-02-19T01:01:24.946Z,1026
2018-02-19T01:02:24.952Z,1025.96
2018-02-19T01:03:24.932Z,1025.95
2018-02-19T01:04:24.950Z,1025.9
2018-02-19T01:05:24.982Z,1025.92
2018-02-19T01:06:24.952Z,1025.87
2018-02-19T01:07:24.945Z,1025.85
2018-02-19T01:08:24.942Z,1025.88
2018-02-19T01:09:24.965Z,1025.85
2018-02-19T01:10:25.015Z,1025.83
2018-02-19T01:11:24.964Z,1025.8
2018-02-19T01:12:24.954Z,1025.77
2018-02-19T01:13:24.960Z,1025.75
2018-02-19T01:14:24.951Z,1025.71
2018-02-19T01:15:24.967Z,1025.74
2018-02-19T01:16:24.939Z,1025.74
2018-02-19T01:17:24.960Z,1025.73
2018-02-19T01:18:24.942Z,1025.72
2018-02-19T01:19:24.945Z,1025.74
2018-02-19T01:20:24.954Z,1025.72
2018-02-19T01:21:24.950Z,1025.74
2018-02-19T01:22:24.939Z,1025.74
2018-02-19T01:23:24.947Z,1025.72
2018-02-19T01:24:24.934Z,1025.67
2018-02-19T01:25:24.933Z,1025.67
2018-02-19T01:26:24.945Z,1025.63
2018-02-19T01:27:24.937Z,1025.63
2018-02-19T01:28:24.953Z,1025.6
2018-02-19T01:29:24.953Z,1025.59
2018-02-19T01:30:24.943Z,1025.56
2018-02-19T01:31:24.934Z,1025.58
2018-02-19T01:32:24.928Z,1025.52
2018-02-19T01:33:24.953Z,1025.51
2018-02-19T01:34:24.932Z,1025.49
2018-02-19T01:35:24.956Z,1025.51
2018-02-19T01:36:24.935Z,1025.48
2018-02-19T01:37:24.958Z,1025.47
2018-02-19T01:38:24.955Z,1025.5
2018-02-19T01:39:24.952Z,1025.51
2018-02-19T01:40:24.952Z,1025.48
2018-02-19T01:41:24.948Z,1025.47
2018-02-19T01:42:24.933Z,1025.48
2018-02-19T01:43:24.946Z,1025.43
2018-02-19T01:44:24.931Z,1025.43
2018-02-19T01:45:24.987Z,1025.41
2018-02-19T01:46:24.941Z,1025.41
2018-02-19T01:47:24.951Z,1025.4
2018-02-19T01:48:24.985Z,1025.32
2018-02-19T01:49:24.938Z,1025.28
2018-02-19T01:50:24.969Z,1025.3
2018-02-19T01:51:24.932Z,1025.21
2018-02-19T01:52:24.931Z,1025.22
2018-02-19T01:53:24.928Z,1025.2
2018-02-19T01:54:24.939Z,1025.17
2018-02-19T01:55:24.938Z,1025.18
2018-02-19T01:56:24.930Z,1025.19
2018-02-19T01:57:24.946Z,1025.16
2018-02-19T01:58:24.923Z,1025.2
2018-02-19T01:59:24.929Z,1025.16
2018-02-19T02:00:24.929Z,1025.17
2018-02-19T02:01:24.931Z,1025.19
2018-02-19T02:02:24.944Z,1025.17
2018-02-19T02:03:24.925Z,1025.17
2018-02-19T02:04:24.934Z,1025.17
2018-02-19T02:05:24.942Z,1025.13
2018-02-19T02:06:24.929Z,1025.12
2018-02-19T02:07:24.932Z,1025.1
2018-02-19T02:08:24.930Z,1025.09
2018-02-19T02:09:24.929Z,1025.03
2018-02-19T02:10:24.934Z,1025.01
2018-02-19T02:11:24.924Z,1024.99
2018-02-19T02:12:24.923Z,1024.93
2018-02-19T02:13:24.921Z,1024.96
2018-02-19T02:14:24.930Z,1024.9
2018-02-19T02:15:24.920Z,1024.91
2018-02-19T02:16:24.933Z,1024.92
2018-02-19T02:17:24.934Z,1024.9
2018-02-19T02:18:24.925Z,1024.9
2018-02-19T02:19:24.933Z,1024.9
2018-02-19T02:20:24.935Z,1024.9
2018-02-19T02:21:24.956Z,1024.87
2018-02-19T02:22:25.042Z,1024.89
2018-02-19T02:23:24.916Z,1024.86
2018-02-19T02:24:24.922Z,1024.85
2018-02-19T02:25:24.948Z,1024.85
2018-02-19T02:26:24.930Z,1024.86
2018-02-19T02:27:24.936Z,1024.89
2018-02-19T02:28:24.923Z,1024.84
2018-02-19T02:29:24.914Z,1024.86
2018-02-19T02:30:24.916Z,1024.83
2018-02-19T02:31:24.927Z,1024.86
2018-02-19T02:32:24.921Z,1024.8
2018-02-19T02:33:25.039Z,1024.82
2018-02-19T02:34:24.920Z,1024.78
2018-02-19T02:35:24.920Z,1024.79
2018-02-19T02:36:24.927Z,1024.77
2018-02-19T02:37:24.965Z,1024.77
2018-02-19T02:38:24.931Z,1024.75
2018-02-19T02:39:24.913Z,1024.76
2018-02-19T02:40:24.923Z,1024.79
2018-02-19T02:41:25.030Z,1024.81
2018-02-19T02:42:24.924Z,1024.78
2018-02-19T02:43:24.929Z,1024.79
2018-02-19T02:44:24.949Z,1024.75
2018-02-19T02:45:24.910Z,1024.76
2018-02-19T02:46:24.932Z,1024.8
2018-02-19T02:47:24.917Z,1024.77
2018-02-19T02:48:24.924Z,1024.77
2018-02-19T02:49:25.020Z,1024.78
2018-02-19T02:50:24.923Z,1024.76
2018-02-19T02:51:24.962Z,1024.76
2018-02-19T02:52:24.992Z,1024.75
2018-02-19T02:53:24.914Z,1024.74
2018-02-19T02:54:24.914Z,1024.71
2018-02-19T02:55:24.905Z,1024.72
2018-02-19T02:56:25.179Z,1024.71
2018-02-19T02:57:24.908Z,1024.7
2018-02-19T02:58:24.921Z,1024.7
2018-02-19T02:59:24.904Z,1024.72
2018-02-19T03:00:24.957Z,1024.7
2018-02-19T03:01:24.921Z,1024.77
2018-02-19T03:02:24.916Z,1024.75
2018-02-19T03:03:24.913Z,1024.71
2018-02-19T03:04:24.919Z,1024.71
2018-02-19T03:05:24.896Z,1024.72
2018-02-19T03:06:24.958Z,1024.73
2018-02-19T03:07:24.899Z,1024.74
2018-02-19T03:08:24.919Z,1024.75
2018-02-19T03:09:24.910Z,1024.74
2018-02-19T03:10:24.903Z,1024.74
2018-02-19T03:11:24.930Z,1024.76
2018-02-19T03:12:24.890Z,1024.76
2018-02-19T03:13:24.908Z,1024.77
2018-02-19T03:14:24.902Z,1024.78
2018-02-19T03:15:24.900Z,1024.77
2018-02-19T03:16:24.947Z,1024.75
2018-02-19T03:17:24.934Z,1024.78
2018-02-19T03:18:24.899Z,1024.8
2018-02-19T03:19:24.896Z,1024.81
2018-02-19T03:20:24.916Z,1024.85
2018-02-19T03:21:24.917Z,1024.85
2018-02-19T03:22:24.908Z,1024.81
2018-02-19T03:23:24.891Z,1024.78
2018-02-19T03:24:24.941Z,1024.81
2018-02-19T03:25:24.947Z,1024.8
2018-02-19T03:26:24.942Z,1024.78
2018-02-19T03:27:24.916Z,1024.81
2018-02-19T03:28:24.903Z,1024.79
2018-02-19T03:29:24.889Z,1024.84
2018-02-19T03:30:24.900Z,1024.83
2018-02-19T03:31:24.935Z,1024.84
2018-02-19T03:32:24.920Z,1024.84
2018-02-19T03:33:24.913Z,1024.83
2018-02-19T03:34:24.918Z,1024.85
2018-02-19T03:35:24.959Z,1024.85
2018-02-19T03:36:24.932Z,1024.85
2018-02-19T03:37:24.922Z,1024.88
2018-02-19T03:38:24.914Z,1024.86
2018-02-19T03:39:24.935Z,1024.83
2018-02-19T03:40:24.913Z,1024.81
2018-02-19T03:41:25.195Z,1024.81
2018-02-19T03:42:24.917Z,1024.77
2018-02-19T03:43:24.917Z,1024.78
2018-02-19T03:44:24.910Z,1024.76
2018-02-19T03:45:24.937Z,1024.73
2018-02-19T03:46:24.948Z,1024.74
2018-02-19T03:47:24.916Z,1024.72
2018-02-19T03:48:24.903Z,1024.69
2018-02-19T03:49:24.913Z,1024.64
2018-02-19T03:50:24.903Z,1024.63
2018-02-19T03:51:24.915Z,1024.64
2018-02-19T03:52:24.922Z,1024.65
2018-02-19T03:53:24.919Z,1024.61
2018-02-19T03:54:24.945Z,1024.6
2018-02-19T03:55:24.938Z,1024.55
2018-02-19T03:56:24.920Z,1024.57
2018-02-19T03:57:24.938Z,1024.53
2018-02-19T03:58:24.936Z,1024.57
2018-02-19T03:59:24.904Z,1024.55
2018-02-19T04:00:24.928Z,1024.53
2018-02-19T04:01:24.912Z,1024.5
2018-02-19T04:02:25.018Z,1024.49
2018-02-19T04:03:24.914Z,1024.44
2018-02-19T04:04:24.913Z,1024.49
2018-02-19T04:05:24.904Z,1024.44
2018-02-19T04:06:24.911Z,1024.44
2018-02-19T04:07:24.932Z,1024.4
2018-02-19T04:08:24.925Z,1024.42
2018-02-19T04:09:24.906Z,1024.42
2018-02-19T04:10:24.958Z,1024.39
2018-02-19T04:11:24.887Z,1024.41
2018-02-19T04:12:24.908Z,1024.42
2018-02-19T04:13:24.936Z,1024.38
2018-02-19T04:14:24.916Z,1024.4
2018-02-19T04:15:24.926Z,1024.37
2018-02-19T04:16:24.883Z,1024.37
2018-02-19T04:17:24.887Z,1024.33
2018-02-19T04:18:24.920Z,1024.33
2018-02-19T04:19:24.920Z,1024.36
2018-02-19T04:20:24.882Z,1024.33
2018-02-19T04:21:24.892Z,1024.32
2018-02-19T04:22:24.881Z,1024.39
2018-02-19T04:23:25.005Z,1024.34
2018-02-19T04:24:24.904Z,1024.32
2018-02-19T04:25:24.897Z,1024.32
2018-02-19T04:26:24.885Z,1024.31
2018-02-19T04:27:24.886Z,1024.29
2018-02-19T04:28:24.888Z,1024.27
2018-02-19T04:29:24.887Z,1024.25
2018-02-19T04:30:24.888Z,1024.25
2018-02-19T04:31:24.921Z,1024.24
2018-02-19T04:32:24.883Z,1024.22
2018-02-19T04:33:24.871Z,1024.2
2018-02-19T04:34:24.876Z,1024.22
2018-02-19T04:35:24.892Z,1024.18
2018-02-19T04:36:24.907Z,1024.24
2018-02-19T04:37:24.888Z,1024.26
2018-02-19T04:38:24.880Z,1024.23
2018-02-19T04:39:24.870Z,1024.25
2018-02-19T04:40:24.870Z,1024.29
2018-02-19T04:41:24.868Z,1024.29
2018-02-19T04:42:24.927Z,1024.29
2018-02-19T04:43:24.891Z,1024.26
2018-02-19T04:44:24.932Z,1024.32
2018-02-19T04:45:24.893Z,1024.31
2018-02-19T04:46:24.867Z,1024.3
2018-02-19T04:47:24.886Z,1024.33
2018-02-19T04:48:24.881Z,1024.35
2018-02-19T04:49:24.867Z,1024.35
2018-02-19T04:50:24.859Z,1024.35
2018-02-19T04:51:24.875Z,1024.35
2018-02-19T04:52:24.884Z,1024.36
2018-02-19T04:53:24.876Z,1024.32
2018-02-19T04:54:24.876Z,1024.36
2018-02-19T04:55:24.867Z,1024.38
2018-02-19T04:56:24.861Z,1024.39
2018-02-19T04:57:24.888Z,1024.34
2018-02-19T04:58:24.854Z,1024.32
2018-02-19T04:59:24.886Z,1024.32
2018-02-19T05:00:24.862Z,1024.31
2018-02-19T05:01:24.876Z,1024.29
2018-02-19T05:02:25.002Z,1024.27
2018-02-19T05:03:24.868Z,1024.25
2018-02-19T05:04:24.876Z,1024.26
2018-02-19T05:05:24.869Z,1024.24
2018-02-19T05:06:24.876Z,1024.29
2018-02-19T05:07:24.882Z,1024.3
2018-02-19T05:08:24.899Z,1024.28
2018-02-19T05:09:24.898Z,1024.28
2018-02-19T05:10:24.882Z,1024.27
2018-02-19T05:11:24.864Z,1024.28
2018-02-19T05:12:24.877Z,1024.29
2018-02-19T05:13:24.874Z,1024.26
2018-02-19T05:14:24.878Z,1024.26
2018-02-19T05:15:24.863Z,1024.22
2018-02-19T05:16:24.859Z,1024.19
2018-02-19T05:17:24.865Z,1024.2
2018-02-19T05:18:24.879Z,1024.2
2018-02-19T05:19:24.875Z,1024.2
2018-02-19T05:20:24.857Z,1024.19
2018-02-19T05:21:24.878Z,1024.18
2018-02-19T05:22:24.857Z,1024.17
2018-02-19T05:23:24.850Z,1024.17
2018-02-19T05:24:24.862Z,1024.2
2018-02-19T05:25:24.851Z,1024.13
2018-02-19T05:26:24.873Z,1024.16
2018-02-19T05:27:24.860Z,1024.08
2018-02-19T05:28:24.879Z,1024.09
2018-02-19T05:29:24.850Z,1024.05
2018-02-19T05:30:24.869Z,1024.06
2018-02-19T05:31:24.850Z,1024.08
2018-02-19T05:32:24.856Z,1024.08
2018-02-19T05:33:24.864Z,1024.07
2018-02-19T05:34:24.851Z,1024.09
2018-02-19T05:35:24.858Z,1024.1
2018-02-19T05:36:24.853Z,1024.12
2018-02-19T05:37:24.873Z,1024.11
2018-02-19T05:38:24.858Z,1024.12
2018-02-19T05:39:24.849Z,1024.11
2018-02-19T05:40:24.861Z,1024.09
2018-02-19T05:41:24.858Z,1024.14
2018-02-19T05:42:24.842Z,1024.1
2018-02-19T05:43:24.870Z,1024.11
2018-02-19T05:44:24.850Z,1024.13
2018-02-19T05:45:24.866Z,1024.16
2018-02-19T05:46:24.860Z,1024.17
2018-02-19T05:47:24.844Z,1024.14
2018-02-19T05:48:24.848Z,1024.12
2018-02-19T05:49:24.853Z,1024.14
2018-02-19T05:50:24.863Z,1024.14
2018-02-19T05:51:24.866Z,1024.15
2018-02-19T05:52:24.842Z,1024.16
2018-02-19T05:53:24.863Z,1024.14
2018-02-19T05:54:24.847Z,1024.18
2018-02-19T05:55:24.868Z,1024.14
2018-02-19T05:56:24.840Z,1024.12
2018-02-19T05:57:24.855Z,1024.12
2018-02-19T05:58:24.942Z,1024.18
2018-02-19T05:59:24.856Z,1024.13
2018-02-19T06:00:24.853Z,1024.18
2018-02-19T06:01:24.838Z,1024.13
2018-02-19T06:02:24.844Z,1024.13
2018-02-19T06:03:24.844Z,1024.14
2018-02-19T06:04:24.880Z,1024.14
2018-02-19T06:05:24.849Z,1024.16
2018-02-19T06:06:24.959Z,1024.18
2018-02-19T06:07:24.850Z,1024.15
2018-02-19T06:08:24.849Z,1024.16
2018-02-19T06:09:24.855Z,1024.18
2018-02-19T06:10:24.853Z,1024.2
2018-02-19T06:11:24.838Z,1024.17
2018-02-19T06:12:24.882Z,1024.17
2018-02-19T06:13:24.842Z,1024.17
2018-02-19T06:14:24.832Z,1024.19
2018-02-19T06:15:24.834Z,1024.18
2018-02-19T06:16:24.846Z,1024.13
2018-02-19T06:17:24.835Z,1024.13
2018-02-19T06:18:24.836Z,1024.16
2018-02-19T06:19:24.843Z,1024.23
2018-02-19T06:20:24.842Z,1024.19
2018-02-19T06:21:24.842Z,1024.21
2018-02-19T06:22:24.838Z,1024.23
2018-02-19T06:23:24.834Z,1024.23
2018-02-19T06:24:24.940Z,1024.21
2018-02-19T06:25:24.844Z,1024.25
2018-02-19T06:26:24.836Z,1024.22
2018-02-19T06:27:24.837Z,1024.22
2018-02-19T06:28:24.826Z,1024.19
2018-02-19T06:29:24.841Z,1024.22
2018-02-19T06:30:24.829Z,1024.19
2018-02-19T06:31:24.829Z,1024.24
2018-02-19T06:32:24.827Z,1024.21
2018-02-19T06:33:24.838Z,1024.23
2018-02-19T06:34:24.860Z,1024.18
2018-02-19T06:35:24.832Z,1024.17
2018-02-19T06:36:24.823Z,1024.2
2018-02-19T06:37:24.838Z,1024.22
2018-02-19T06:38:24.870Z,1024.22
2018-02-19T06:39:24.866Z,1024.21
2018-02-19T06:40:24.889Z,1024.21
2018-02-19T06:41:24.826Z,1024.24
2018-02-19T06:42:24.834Z,1024.23
2018-02-19T06:43:24.972Z,1024.24
2018-02-19T06:44:24.879Z,1024.21
2018-02-19T06:45:24.830Z,1024.22
2018-02-19T06:46:24.847Z,1024.2
2018-02-19T06:47:24.840Z,1024.24
2018-02-19T06:48:24.839Z,1024.25
2018-02-19T06:49:24.842Z,1024.24
2018-02-19T06:50:24.931Z,1024.29
2018-02-19T06:51:24.846Z,1024.28
2018-02-19T06:52:24.857Z,1024.27
2018-02-19T06:53:24.821Z,1024.29
2018-02-19T06:54:24.981Z,1024.2
2018-02-19T06:55:24.851Z,1024.21
2018-02-19T06:56:24.823Z,1024.16
2018-02-19T06:57:24.855Z,1024.19
2018-02-19T06:58:24.869Z,1024.2
2018-02-19T06:59:24.853Z,1024.16
2018-02-19T07:00:24.861Z,1024.15
2018-02-19T07:01:24.827Z,1024.15
2018-02-19T07:02:24.865Z,1024.14
2018-02-19T07:03:24.836Z,1024.09
2018-02-19T07:04:24.835Z,1024.09
2018-02-19T07:05:24.824Z,1024.09
2018-02-19T07:06:24.875Z,1024.07
2018-02-19T07:07:24.841Z,1024.04
2018-02-19T07:08:24.825Z,1024.05
2018-02-19T07:09:24.849Z,1024.05
2018-02-19T07:10:24.834Z,1024.02
2018-02-19T07:11:24.865Z,1024.01
2018-02-19T07:12:24.823Z,1024.02
2018-02-19T07:13:24.849Z,1024
2018-02-19T07:14:24.827Z,1024.01
2018-02-19T07:15:24.825Z,1024
2018-02-19T07:16:24.824Z,1023.87
2018-02-19T07:17:24.833Z,1023.99
2018-02-19T07:18:24.864Z,1023.99
2018-02-19T07:19:24.822Z,1024.02
2018-02-19T07:20:24.835Z,1024.02
2018-02-19T07:21:24.822Z,1023.98
2018-02-19T07:22:24.819Z,1023.96
2018-02-19T07:23:24.847Z,1023.96
2018-02-19T07:24:24.821Z,1023.98
2018-02-19T07:25:24.823Z,1023.95
2018-02-19T07:26:24.831Z,1023.95
2018-02-19T07:27:24.839Z,1023.99
2018-02-19T07:28:24.879Z,1024.01
2018-02-19T07:29:24.840Z,1023.96
2018-02-19T07:30:24.836Z,1023.95
2018-02-19T07:31:24.831Z,1023.98
2018-02-19T07:32:24.833Z,1023.95
2018-02-19T07:33:24.880Z,1024.01
2018-02-19T07:34:27.119Z,1024.03
2018-02-19T07:35:24.838Z,1024.01
2018-02-19T07:36:24.855Z,1023.98
2018-02-19T07:37:24.837Z,1023.94
2018-02-19T07:38:24.836Z,1023.95
2018-02-19T07:39:24.834Z,1023.93
2018-02-19T07:40:26.867Z,1023.95
2018-02-19T07:41:24.841Z,1023.95
2018-02-19T07:42:26.367Z,1023.94
2018-02-19T07:43:26.853Z,1023.87
2018-02-19T07:44:27.265Z,1023.91
2018-02-19T07:45:24.843Z,1023.89
2018-02-19T07:46:26.864Z,1023.85
2018-02-19T07:47:26.854Z,1023.87
2018-02-19T07:48:27.007Z,1023.82
2018-02-19T07:49:24.845Z,1023.81
2018-02-19T07:50:26.866Z,1023.78
2018-02-19T07:51:24.845Z,1023.75
2018-02-19T07:52:26.856Z,1023.73
2018-02-19T07:53:24.837Z,1023.73
2018-02-19T07:54:24.834Z,1023.76
2018-02-19T07:55:26.808Z,1023.75
2018-02-19T07:56:26.359Z,1023.71
2018-02-19T07:57:24.843Z,1023.75
2018-02-19T07:58:24.847Z,1023.78
2018-02-19T07:59:24.848Z,1023.71
2018-02-19T08:00:24.852Z,1023.73
2018-02-19T08:01:26.603Z,1023.72
2018-02-19T08:02:24.909Z,1023.73
2018-02-19T08:03:24.843Z,1023.68
2018-02-19T08:04:26.864Z,1023.68
2018-02-19T08:05:24.847Z,1023.79
2018-02-19T08:06:24.846Z,1023.76
2018-02-19T08:07:24.847Z,1023.72
2018-02-19T08:08:24.839Z,1023.75
2018-02-19T08:09:24.847Z,1023.77
2018-02-19T08:10:24.852Z,1023.77
2018-02-19T08:11:24.878Z,1023.74
2018-02-19T08:12:27.818Z,1023.78
2018-02-19T08:13:24.838Z,1023.79
2018-02-19T08:14:24.845Z,1023.77
2018-02-19T08:15:24.926Z,1023.82
2018-02-19T08:16:24.820Z,1023.79
2018-02-19T08:17:25.370Z,1023.81
2018-02-19T08:18:25.383Z,1023.78
2018-02-19T08:19:24.843Z,1023.77
2018-02-19T08:20:24.866Z,1023.81
2018-02-19T08:21:24.848Z,1023.81
2018-02-19T08:22:24.823Z,1023.77
2018-02-19T08:23:25.397Z,1023.78
2018-02-19T08:24:24.889Z,1023.78
2018-02-19T08:25:24.936Z,1023.77
2018-02-19T08:26:25.394Z,1023.75
2018-02-19T08:27:24.835Z,1023.77
2018-02-19T08:28:24.826Z,1023.8
2018-02-19T08:29:24.846Z,1023.82
2018-02-19T08:30:24.825Z,1023.78
2018-02-19T08:31:24.830Z,1023.75
2018-02-19T08:32:24.829Z,1023.76
2018-02-19T08:33:27.094Z,1023.74
2018-02-19T08:34:24.828Z,1023.73
2018-02-19T08:35:25.377Z,1023.81
2018-02-19T08:36:24.844Z,1023.81
2018-02-19T08:37:24.832Z,1023.76
2018-02-19T08:38:24.831Z,1023.78
2018-02-19T08:39:24.834Z,1023.76
2018-02-19T08:40:24.832Z,1023.77
2018-02-19T08:41:24.965Z,1023.77
2018-02-19T08:42:25.305Z,1023.79
2018-02-19T08:43:24.837Z,1023.77
2018-02-19T08:44:24.832Z,1023.75
2018-02-19T08:45:24.839Z,1023.79
2018-02-19T08:46:25.412Z,1023.79
2018-02-19T08:47:25.311Z,1023.75
2018-02-19T08:48:24.816Z,1023.75
2018-02-19T08:49:24.815Z,1023.71
2018-02-19T08:50:24.816Z,1023.68
2018-02-19T08:51:24.842Z,1023.68
2018-02-19T08:52:24.821Z,1023.68
2018-02-19T08:53:24.818Z,1023.67
2018-02-19T08:54:25.394Z,1023.66
2018-02-19T08:55:24.819Z,1023.68
2018-02-19T08:56:25.359Z,1023.67
2018-02-19T08:57:24.814Z,1023.62
2018-02-19T08:58:24.824Z,1023.61
2018-02-19T08:59:24.827Z,1023.6
2018-02-19T09:00:24.852Z,1023.61
2018-02-19T09:01:25.415Z,1023.58
2018-02-19T09:02:24.827Z,1023.61
2018-02-19T09:03:25.304Z,1023.6
2018-02-19T09:04:24.828Z,1023.56
2018-02-19T09:05:25.413Z,1023.55
2018-02-19T09:06:24.827Z,1023.53
2018-02-19T09:07:24.849Z,1023.51
2018-02-19T09:08:24.834Z,1023.55
2018-02-19T09:09:24.787Z,1023.49
2018-02-19T09:10:25.385Z,1023.5
2018-02-19T09:11:25.378Z,1023.47
2018-02-19T09:12:24.832Z,1023.5
2018-02-19T09:13:24.827Z,1023.53
2018-02-19T09:14:24.834Z,1023.48
2018-02-19T09:15:25.384Z,1023.46
2018-02-19T09:16:25.406Z,1023.45
2018-02-19T09:17:24.867Z,1023.48
2018-02-19T09:18:25.302Z,1023.46
2018-02-19T09:19:25.384Z,1023.4
2018-02-19T09:20:24.791Z,1023.41
2018-02-19T09:21:24.873Z,1023.43
2018-02-19T09:22:24.868Z,1023.42
2018-02-19T09:23:25.314Z,1023.41
2018-02-19T09:24:24.797Z,1023.39
2018-02-19T09:25:24.787Z,1023.39
2018-02-19T09:26:24.797Z,1023.38
2018-02-19T09:27:25.058Z,1023.39
2018-02-19T09:28:24.971Z,1023.36
2018-02-19T09:29:24.781Z,1023.32
2018-02-19T09:30:24.797Z,1023.32
2018-02-19T09:31:24.782Z,1023.35
2018-02-19T09:32:25.400Z,1023.34
2018-02-19T09:33:24.847Z,1023.29
2018-02-19T09:34:24.802Z,1023.31
2018-02-19T09:35:24.777Z,1023.32
2018-02-19T09:36:24.850Z,1023.28
2018-02-19T09:37:24.792Z,1023.31
2018-02-19T09:38:25.035Z,1023.28
2018-02-19T09:39:24.807Z,1023.29
2018-02-19T09:40:24.784Z,1023.31
2018-02-19T09:41:24.780Z,1023.29
2018-02-19T09:42:24.781Z,1023.29
2018-02-19T09:43:24.801Z,1023.26
2018-02-19T09:44:24.790Z,1023.29
2018-02-19T09:45:24.783Z,1023.25
2018-02-19T09:46:24.814Z,1023.26
2018-02-19T09:47:24.912Z,1023.21
2018-02-19T09:48:24.781Z,1023.19
2018-02-19T09:49:24.793Z,1023.19
2018-02-19T09:50:24.795Z,1023.19
2018-02-19T09:51:24.800Z,1023.23
2018-02-19T09:52:24.778Z,1023.2
2018-02-19T09:53:24.790Z,1023.19
2018-02-19T09:54:24.769Z,1023.21
2018-02-19T09:55:24.897Z,1023.2
2018-02-19T09:56:24.794Z,1023.21
2018-02-19T09:57:24.778Z,1023.15
2018-02-19T09:58:24.768Z,1023.14
2018-02-19T09:59:24.795Z,1023.15
2018-02-19T10:00:24.788Z,1023.16
2018-02-19T10:01:24.787Z,1023.14
2018-02-19T10:02:24.783Z,1023.14
2018-02-19T10:03:24.898Z,1023.18
2018-02-19T10:04:24.768Z,1023.15
2018-02-19T10:05:24.802Z,1023.14
2018-02-19T10:06:24.827Z,1023.15
2018-02-19T10:07:24.790Z,1023.13
2018-02-19T10:08:24.777Z,1023.15
2018-02-19T10:09:24.775Z,1023.1
2018-02-19T10:10:24.783Z,1023.07
2018-02-19T10:11:24.776Z,1023.09
2018-02-19T10:12:24.783Z,1023.04
2018-02-19T10:13:24.776Z,1023.03
2018-02-19T10:14:24.855Z,1023.05
2018-02-19T10:15:24.893Z,1022.99
2018-02-19T10:16:24.793Z,1023.03
2018-02-19T10:17:24.796Z,1023
2018-02-19T10:18:24.793Z,1023
2018-02-19T10:19:24.791Z,1023.03
2018-02-19T10:20:24.776Z,1023
2018-02-19T10:21:24.792Z,1023.02
2018-02-19T10:22:24.795Z,1023.01
2018-02-19T10:23:24.799Z,1023.03
2018-02-19T10:24:24.790Z,1023.02
2018-02-19T10:25:24.884Z,1023.02
2018-02-19T10:26:25.465Z,1023.06
2018-02-19T10:27:24.777Z,1023.06
2018-02-19T10:28:24.777Z,1023.07
2018-02-19T10:29:24.772Z,1023.07
2018-02-19T10:30:24.769Z,1023.06
2018-02-19T10:31:24.768Z,1023.06
2018-02-19T10:32:24.761Z,1023.05
2018-02-19T10:33:24.771Z,1023.07
2018-02-19T10:34:24.762Z,1023.06
2018-02-19T10:35:24.807Z,1023.07
2018-02-19T10:36:24.808Z,1023.12
2018-02-19T10:37:24.839Z,1023.1
2018-02-19T10:38:24.774Z,1023.06
2018-02-19T10:39:24.770Z,1023.06
2018-02-19T10:40:24.782Z,1023.06
2018-02-19T10:41:24.769Z,1023.09
2018-02-19T10:42:24.771Z,1023.06
2018-02-19T10:43:24.765Z,1023.06
2018-02-19T10:44:24.766Z,1023.06
2018-02-19T10:45:24.751Z,1023.04
2018-02-19T10:46:24.760Z,1022.98
2018-02-19T10:47:24.764Z,1022.98
2018-02-19T10:48:24.812Z,1023
2018-02-19T10:49:24.769Z,1022.96
2018-02-19T10:50:24.768Z,1022.99
2018-02-19T10:51:24.767Z,1022.97
2018-02-19T10:52:24.751Z,1023.01
2018-02-19T10:53:24.758Z,1023.01
2018-02-19T10:54:24.754Z,1022.98
2018-02-19T10:55:24.745Z,1023
2018-02-19T10:56:24.764Z,1022.98
2018-02-19T10:57:24.766Z,1022.97
2018-02-19T10:58:24.760Z,1022.98
2018-02-19T10:59:24.756Z,1022.97
2018-02-19T11:00:24.780Z,1023
2018-02-19T11:01:24.754Z,1022.98
2018-02-19T11:02:24.754Z,1022.94
2018-02-19T11:03:24.767Z,1022.95
2018-02-19T11:04:24.747Z,1022.93
2018-02-19T11:05:24.757Z,1022.92
2018-02-19T11:06:24.787Z,1022.86
2018-02-19T11:07:26.940Z,1022.87
2018-02-19T11:08:26.291Z,1022.85
2018-02-19T11:09:25.006Z,1022.85
2018-02-19T11:10:24.764Z,1022.82
2018-02-19T11:11:24.778Z,1022.82
2018-02-19T11:12:24.759Z,1022.81
2018-02-19T11:13:24.915Z,1022.81
2018-02-19T11:14:24.765Z,1022.78
2018-02-19T11:15:24.749Z,1022.77
2018-02-19T11:16:24.769Z,1022.82
2018-02-19T11:17:24.760Z,1022.79
2018-02-19T11:18:24.755Z,1022.74
2018-02-19T11:19:24.752Z,1022.72
2018-02-19T11:20:24.858Z,1022.73
2018-02-19T11:21:24.785Z,1022.74
2018-02-19T11:22:26.280Z,1022.72
2018-02-19T11:23:24.774Z,1022.67
2018-02-19T11:24:24.763Z,1022.65
2018-02-19T11:25:24.744Z,1022.64
2018-02-19T11:26:24.785Z,1022.66
2018-02-19T11:27:24.759Z,1022.63
2018-02-19T11:28:24.783Z,1022.6
2018-02-19T11:29:24.782Z,1022.63
2018-02-19T11:30:24.792Z,1022.59
2018-02-19T11:31:24.799Z,1022.62
2018-02-19T11:32:24.767Z,1022.6
2018-02-19T11:33:24.770Z,1022.61
2018-02-19T11:34:24.751Z,1022.56
2018-02-19T11:35:24.738Z,1022.57
2018-02-19T11:36:24.779Z,1022.54
2018-02-19T11:37:24.778Z,1022.51
2018-02-19T11:38:24.762Z,1022.5
2018-02-19T11:39:24.870Z,1022.53
2018-02-19T11:40:24.785Z,1022.5
2018-02-19T11:41:24.801Z,1022.46
2018-02-19T11:42:24.738Z,1022.41
2018-02-19T11:43:24.761Z,1022.41
2018-02-19T11:44:24.739Z,1022.38
2018-02-19T11:45:24.744Z,1022.38
2018-02-19T11:46:24.800Z,1022.4
2018-02-19T11:47:24.746Z,1022.35
2018-02-19T11:48:24.765Z,1022.32
2018-02-19T11:49:24.797Z,1022.34
2018-02-19T11:50:24.741Z,1022.36
2018-02-19T11:51:24.770Z,1022.34
2018-02-19T11:52:25.395Z,1022.32
2018-02-19T11:53:24.744Z,1022.3
2018-02-19T11:54:24.741Z,1022.26
2018-02-19T11:55:24.760Z,1022.25
2018-02-19T11:56:24.737Z,1022.26
2018-02-19T11:57:24.748Z,1022.26
2018-02-19T11:58:24.746Z,1022.24
2018-02-19T11:59:24.750Z,1022.27
2018-02-19T12:00:24.739Z,1022.28
2018-02-19T12:01:24.748Z,1022.23
2018-02-19T12:02:24.753Z,1022.26
2018-02-19T12:03:24.752Z,1022.29
2018-02-19T12:04:24.752Z,1022.27
2018-02-19T12:05:24.729Z,1022.27
2018-02-19T12:06:24.750Z,1022.28
2018-02-19T12:07:24.725Z,1022.25
2018-02-19T12:08:24.752Z,1022.28